createdAt,value
2022-09-03T00:00:07.718Z,0.00
2022-09-03T00:01:07.842Z,0.00
2022-09-03T00:02:08.617Z,0.00
2022-09-03T00:03:08.148Z,0.00
2022-09-03T00:04:08.836Z,0.00
2022-09-03T00:05:09.372Z,0.00
2022-09-03T00:06:10.509Z,0.00
2022-09-03T00:07:10.729Z,0.00
2022-09-03T00:08:10.834Z,0.00
2022-09-03T00:08:19.546Z,0.00
2022-09-03T00:09:19.799Z,0.00
2022-09-03T00:10:20.026Z,0.00
2022-09-03T00:11:21.384Z,0.00
2022-09-03T00:12:21.598Z,0.00
2022-09-03T00:13:21.812Z,0.00
2022-09-03T00:14:22.677Z,0.00
2022-09-03T00:15:22.823Z,0.00
2022-09-03T00:16:22.958Z,0.00
2022-09-03T00:17:22.253Z,0.00
2022-09-03T00:18:23.529Z,0.00
2022-09-03T00:19:22.735Z,0.00
2022-09-03T00:20:24.626Z,0.00
2022-09-03T00:21:24.668Z,0.00
2022-09-03T00:22:24.726Z,0.00
2022-09-03T00:23:24.870Z,0.00
2022-09-03T00:24:25.078Z,0.00
2022-09-03T00:25:26.753Z,0.00
2022-09-03T00:26:25.266Z,0.00
2022-09-03T00:27:25.491Z,0.00
2022-09-03T00:28:26.970Z,0.00
2022-09-03T00:29:27.438Z,0.00
2022-09-03T00:29:36.574Z,0.00
2022-09-03T00:30:36.884Z,0.00
2022-09-03T00:31:37.097Z,0.00
2022-09-03T00:32:37.181Z,0.00
2022-09-03T00:33:37.558Z,0.00
2022-09-03T00:34:38.881Z,0.00
2022-09-03T00:35:39.139Z,0.00
2022-09-03T00:36:39.365Z,0.00
2022-09-03T00:37:38.574Z,0.00
2022-09-03T00:38:39.429Z,0.00
2022-09-03T00:39:40.840Z,0.00
2022-09-03T00:40:40.091Z,0.00
2022-09-03T00:41:40.280Z,0.00
2022-09-03T00:42:40.769Z,0.00
2022-09-03T00:43:42.092Z,0.00
2022-09-03T00:44:41.294Z,0.00
2022-09-03T00:45:42.329Z,0.00
2022-09-03T00:46:42.595Z,0.00
2022-09-03T00:47:41.544Z,0.00
2022-09-03T00:48:43.147Z,0.00
2022-09-03T00:49:42.231Z,0.00
2022-09-03T00:50:42.287Z,0.00
2022-09-03T00:51:43.689Z,0.00
2022-09-03T00:52:44.053Z,0.00
2022-09-03T00:53:44.698Z,0.00
2022-09-03T00:53:53.341Z,0.00
2022-09-03T00:54:53.401Z,0.00
2022-09-03T00:55:54.604Z,0.00
2022-09-03T00:56:54.841Z,0.00
2022-09-03T00:57:55.436Z,0.00
2022-09-03T00:58:55.577Z,0.00
2022-09-03T00:59:54.677Z,0.00
2022-09-03T01:00:54.789Z,0.00
2022-09-03T01:01:56.109Z,0.00
2022-09-03T01:02:55.875Z,0.00
2022-09-03T01:03:55.958Z,0.00
2022-09-03T01:04:56.608Z,0.00
2022-09-03T01:06:01.524Z,0.00
2022-09-03T01:06:56.749Z,0.00
2022-09-03T01:07:57.755Z,0.00
2022-09-03T01:08:57.867Z,0.00
2022-09-03T01:09:58.337Z,0.00
2022-09-03T01:10:58.468Z,0.00
2022-09-03T01:11:57.826Z,0.00
2022-09-03T01:12:59.050Z,0.00
2022-09-03T01:13:59.149Z,0.00
2022-09-03T01:14:59.359Z,0.00
2022-09-03T01:15:10.009Z,0.00
2022-09-03T01:16:11.731Z,0.00
2022-09-03T01:17:10.796Z,0.00
2022-09-03T01:18:12.347Z,0.00
2022-09-03T01:19:12.592Z,0.00
2022-09-03T01:20:12.725Z,0.00
2022-09-03T01:21:12.222Z,0.00
2022-09-03T01:22:13.489Z,0.00
2022-09-03T01:23:13.757Z,0.00
2022-09-03T01:24:14.717Z,0.00
2022-09-03T01:25:15.307Z,0.00
2022-09-03T01:26:14.492Z,0.00
2022-09-03T01:27:14.833Z,0.00
2022-09-03T01:28:16.069Z,0.00
2022-09-03T01:29:16.792Z,0.00
2022-09-03T01:30:17.245Z,0.00
2022-09-03T01:31:16.505Z,0.00
2022-09-03T01:32:17.084Z,0.00
2022-09-03T01:33:18.447Z,0.00
2022-09-03T01:34:18.548Z,0.00
2022-09-03T01:34:27.166Z,0.00
2022-09-03T01:35:28.323Z,0.00
2022-09-03T01:36:27.674Z,0.00
2022-09-03T01:37:27.956Z,0.00
2022-09-03T01:38:29.779Z,0.00
2022-09-03T01:39:28.879Z,0.00
2022-09-03T01:40:29.030Z,0.00
2022-09-03T01:41:30.719Z,0.00
2022-09-03T01:42:30.742Z,0.00
2022-09-03T01:43:31.133Z,0.00
2022-09-03T01:44:30.268Z,0.00
2022-09-03T01:45:30.358Z,0.00
2022-09-03T01:46:31.615Z,0.00
2022-09-03T01:47:30.869Z,0.00
2022-09-03T01:48:31.956Z,0.00
2022-09-03T01:49:32.237Z,0.00
2022-09-03T01:50:32.770Z,0.00
2022-09-03T01:51:33.205Z,0.00
2022-09-03T01:52:33.923Z,0.00
2022-09-03T01:53:33.564Z,0.00
2022-09-03T01:54:34.672Z,0.00
2022-09-03T01:55:34.892Z,0.00
2022-09-03T01:56:35.661Z,0.00
2022-09-03T01:56:44.303Z,0.00
2022-09-03T01:57:46.077Z,0.00
2022-09-03T01:58:46.313Z,0.00
2022-09-03T01:59:46.704Z,0.00
2022-09-03T02:00:45.927Z,0.00
2022-09-03T02:01:47.311Z,0.00
2022-09-03T02:02:47.094Z,0.00
2022-09-03T02:03:47.876Z,0.00
2022-09-03T02:04:49.060Z,0.00
2022-09-03T02:05:48.202Z,0.00
2022-09-03T02:06:49.858Z,0.00
2022-09-03T02:07:50.275Z,0.00
2022-09-03T02:08:50.388Z,0.00
2022-09-03T02:09:49.818Z,0.00
2022-09-03T02:10:49.877Z,0.00
2022-09-03T02:11:51.095Z,0.00
2022-09-03T02:12:50.717Z,0.00
2022-09-03T02:13:52.336Z,0.00
2022-09-03T02:14:52.445Z,0.00
2022-09-03T02:15:52.616Z,0.00
2022-09-03T02:16:51.607Z,0.00
2022-09-03T02:17:00.237Z,0.00
2022-09-03T02:18:02.067Z,0.00
2022-09-03T02:19:01.102Z,0.00
2022-09-03T02:20:02.186Z,0.00
2022-09-03T02:21:02.389Z,0.00
2022-09-03T02:22:02.628Z,0.00
2022-09-03T02:23:02.676Z,0.00
2022-09-03T02:24:02.876Z,0.00
2022-09-03T02:25:03.555Z,0.00
2022-09-03T02:26:02.611Z,0.00
2022-09-03T02:27:04.555Z,0.00
2022-09-03T02:28:04.668Z,0.00
2022-09-03T02:29:04.271Z,0.00
2022-09-03T02:30:05.645Z,0.00
2022-09-03T02:31:05.808Z,0.00
2022-09-03T02:32:05.737Z,0.00
2022-09-03T02:33:07.262Z,0.00
2022-09-03T02:34:07.591Z,0.00
2022-09-03T02:35:08.370Z,0.00
2022-09-03T02:35:17.054Z,0.00
2022-09-03T02:36:17.844Z,0.00
2022-09-03T02:37:19.146Z,0.00
2022-09-03T02:38:19.512Z,0.00
2022-09-03T02:39:18.670Z,0.00
2022-09-03T02:40:18.985Z,0.00
2022-09-03T02:41:20.442Z,0.00
2022-09-03T02:42:20.568Z,0.00
2022-09-03T02:43:20.608Z,0.00
2022-09-03T02:44:20.071Z,0.00
2022-09-03T02:45:21.759Z,0.00
2022-09-03T02:46:20.892Z,0.00
2022-09-03T02:47:20.970Z,0.00
2022-09-03T02:48:21.463Z,0.00
2022-09-03T02:49:21.494Z,0.00
2022-09-03T02:50:23.053Z,0.00
2022-09-03T02:51:23.426Z,0.00
2022-09-03T02:52:23.238Z,0.00
2022-09-03T02:53:24.380Z,0.00
2022-09-03T02:54:24.598Z,0.00
2022-09-03T02:55:24.960Z,0.00
2022-09-03T02:56:25.122Z,0.00
2022-09-03T02:57:27.519Z,0.00
2022-09-03T02:57:32.872Z,0.00
2022-09-03T02:58:34.251Z,0.00
2022-09-03T02:59:34.717Z,0.00
2022-09-03T03:00:34.820Z,0.00
2022-09-03T03:01:34.160Z,0.00
2022-09-03T03:02:34.487Z,0.00
2022-09-03T03:03:34.518Z,0.00
2022-09-03T03:04:35.708Z,0.00
2022-09-03T03:05:35.772Z,0.00
2022-09-03T03:06:36.171Z,0.00
2022-09-03T03:07:36.587Z,0.00
2022-09-03T03:08:35.791Z,0.00
2022-09-03T03:09:36.283Z,0.00
2022-09-03T03:10:38.285Z,0.00
2022-09-03T03:11:37.420Z,0.00
2022-09-03T03:12:38.478Z,0.00
2022-09-03T03:13:38.503Z,0.00
2022-09-03T03:14:38.562Z,0.00
2022-09-03T03:15:37.680Z,0.00
2022-09-03T03:16:39.071Z,0.00
2022-09-03T03:17:38.035Z,0.00
2022-09-03T03:18:39.164Z,0.00
2022-09-03T03:18:48.327Z,0.00
2022-09-03T03:19:49.839Z,0.00
2022-09-03T03:20:50.545Z,0.00
2022-09-03T03:21:51.073Z,0.00
2022-09-03T03:22:51.122Z,0.00
2022-09-03T03:23:51.382Z,0.00
2022-09-03T03:24:51.698Z,0.00
2022-09-03T03:25:51.742Z,0.00
2022-09-03T03:26:51.739Z,0.00
2022-09-03T03:27:51.820Z,0.00
2022-09-03T03:28:52.281Z,0.00
2022-09-03T03:29:52.972Z,0.00
2022-09-03T03:30:52.219Z,0.00
2022-09-03T03:31:52.280Z,0.00
2022-09-03T03:32:54.241Z,0.00
2022-09-03T03:33:54.267Z,0.00
2022-09-03T03:34:54.407Z,0.00
2022-09-03T03:35:53.578Z,0.00
2022-09-03T03:36:53.899Z,0.00
2022-09-03T03:37:55.002Z,0.00
2022-09-03T03:38:55.184Z,0.00
2022-09-03T03:39:03.771Z,0.00
2022-09-03T03:40:05.369Z,0.00
2022-09-03T03:41:04.395Z,0.00
2022-09-03T03:42:05.897Z,0.00
2022-09-03T03:43:06.175Z,0.00
2022-09-03T03:44:06.384Z,0.00
2022-09-03T03:45:06.016Z,0.00
2022-09-03T03:46:07.666Z,0.00
2022-09-03T03:47:07.225Z,0.00
2022-09-03T03:48:08.537Z,0.05
2022-09-03T03:49:07.634Z,0.05
2022-09-03T03:50:09.412Z,0.05
2022-09-03T03:51:08.791Z,0.05
2022-09-03T03:52:10.057Z,0.05
2022-09-03T03:53:10.097Z,0.05
2022-09-03T03:54:10.524Z,0.05
2022-09-03T03:55:09.641Z,0.05
2022-09-03T03:56:11.354Z,0.05
2022-09-03T03:57:10.606Z,0.09
2022-09-03T03:58:11.856Z,0.09
2022-09-03T03:59:11.863Z,0.14
2022-09-03T04:00:11.418Z,0.14
2022-09-03T04:00:20.083Z,0.14
2022-09-03T04:01:20.763Z,0.14
2022-09-03T04:02:21.177Z,0.14
2022-09-03T04:03:21.396Z,0.14
2022-09-03T04:04:22.839Z,0.18
2022-09-03T04:05:23.207Z,0.22
2022-09-03T04:06:22.444Z,0.22
2022-09-03T04:07:23.897Z,0.31
2022-09-03T04:08:24.391Z,0.36
2022-09-03T04:09:23.435Z,0.45
2022-09-03T04:10:24.955Z,0.50
2022-09-03T04:11:24.412Z,0.58
2022-09-03T04:12:24.519Z,0.68
2022-09-03T04:13:25.139Z,0.86
2022-09-03T04:14:26.815Z,1.03
2022-09-03T04:15:27.385Z,1.22
2022-09-03T04:16:27.966Z,1.44
2022-09-03T04:17:27.136Z,1.75
2022-09-03T04:18:28.761Z,2.03
2022-09-03T04:19:29.142Z,2.38
2022-09-03T04:20:29.912Z,2.88
2022-09-03T04:21:29.910Z,3.42
2022-09-03T04:22:30.461Z,4.14
2022-09-03T04:23:30.670Z,4.91
2022-09-03T04:23:39.261Z,5.09
2022-09-03T04:24:41.151Z,6.12
2022-09-03T04:25:40.591Z,7.34
2022-09-03T04:26:42.201Z,8.73
2022-09-03T04:27:42.787Z,10.31
2022-09-03T04:28:43.670Z,12.06
2022-09-03T04:29:44.120Z,14.13
2022-09-03T04:30:43.882Z,16.20
2022-09-03T04:31:44.131Z,18.00
2022-09-03T04:32:44.728Z,19.80
2022-09-03T04:33:46.527Z,21.87
2022-09-03T04:34:46.359Z,24.30
2022-09-03T04:35:47.640Z,27.18
2022-09-03T04:36:52.391Z,30.24
2022-09-03T04:37:47.675Z,34.38
2022-09-03T04:38:49.157Z,39.42
2022-09-03T04:39:49.888Z,44.82
2022-09-03T04:40:49.054Z,50.76
2022-09-03T04:41:50.708Z,57.24
2022-09-03T04:42:50.870Z,64.44
2022-09-03T04:43:51.229Z,72.72
2022-09-03T04:43:59.638Z,74.16
2022-09-03T04:45:01.568Z,83.88
2022-09-03T04:46:00.887Z,95.76
2022-09-03T04:47:01.002Z,108.00
2022-09-03T04:48:02.573Z,121.68
2022-09-03T04:49:02.862Z,134.64
2022-09-03T04:50:02.416Z,151.92
2022-09-03T04:51:03.917Z,169.20
2022-09-03T04:52:04.306Z,185.76
2022-09-03T04:53:07.815Z,200.16
2022-09-03T04:54:04.545Z,211.68
2022-09-03T04:55:05.683Z,224.64
2022-09-03T04:56:05.684Z,243.36
2022-09-03T04:57:06.093Z,267.84
2022-09-03T04:58:06.465Z,299.52
2022-09-03T04:59:06.525Z,341.28
2022-09-03T05:00:06.673Z,385.92
2022-09-03T05:01:07.303Z,414.72
2022-09-03T05:02:06.744Z,420.48
2022-09-03T05:03:07.120Z,417.60
2022-09-03T05:04:08.488Z,420.48
2022-09-03T05:04:21.143Z,420.48
2022-09-03T05:05:21.808Z,434.88
2022-09-03T05:06:21.961Z,446.40
2022-09-03T05:07:22.730Z,457.92
2022-09-03T05:08:24.515Z,480.96
2022-09-03T05:09:23.978Z,527.04
2022-09-03T05:10:25.815Z,590.40
2022-09-03T05:11:25.302Z,645.12
2022-09-03T05:12:26.404Z,676.80
2022-09-03T05:13:26.796Z,696.96
2022-09-03T05:14:27.084Z,699.84
2022-09-03T05:15:26.615Z,722.88
2022-09-03T05:16:28.075Z,766.08
2022-09-03T05:17:27.389Z,817.92
2022-09-03T05:18:28.392Z,846.72
2022-09-03T05:19:28.529Z,835.20
2022-09-03T05:20:29.179Z,812.16
2022-09-03T05:21:29.858Z,823.68
2022-09-03T05:22:29.090Z,852.48
2022-09-03T05:23:33.228Z,887.04
2022-09-03T05:24:29.813Z,933.12
2022-09-03T05:25:30.909Z,961.92
2022-09-03T05:26:31.377Z,961.92
2022-09-03T05:26:40.002Z,961.92
2022-09-03T05:27:40.366Z,933.12
2022-09-03T05:28:42.064Z,881.28
2022-09-03T05:29:41.448Z,823.68
2022-09-03T05:30:42.615Z,760.32
2022-09-03T05:31:43.243Z,688.32
2022-09-03T05:32:42.479Z,630.72
2022-09-03T05:33:44.453Z,584.64
2022-09-03T05:34:44.859Z,558.72
2022-09-03T05:35:45.034Z,547.20
2022-09-03T05:36:44.800Z,544.32
2022-09-03T05:37:46.050Z,547.20
2022-09-03T05:38:46.473Z,555.84
2022-09-03T05:39:46.854Z,573.12
2022-09-03T05:40:45.921Z,587.52
2022-09-03T05:41:47.088Z,613.44
2022-09-03T05:42:47.495Z,639.36
2022-09-03T05:43:47.889Z,633.60
2022-09-03T05:44:48.371Z,607.68
2022-09-03T05:45:47.924Z,587.52
2022-09-03T05:46:48.133Z,584.64
2022-09-03T05:46:56.760Z,584.64
2022-09-03T05:47:58.229Z,604.80
2022-09-03T05:48:58.633Z,613.44
2022-09-03T05:49:59.615Z,622.08
2022-09-03T05:50:59.644Z,642.24
2022-09-03T05:51:59.979Z,662.40
2022-09-03T05:53:00.310Z,705.60
2022-09-03T05:53:59.767Z,748.80
2022-09-03T05:55:01.397Z,817.92
2022-09-03T05:56:02.163Z,927.36
2022-09-03T05:57:02.116Z,1198.08
2022-09-03T05:58:03.180Z,1353.60
2022-09-03T05:59:03.898Z,1520.64
2022-09-03T06:00:04.485Z,1624.32
2022-09-03T06:01:04.974Z,1728.00
2022-09-03T06:02:04.525Z,1797.12
2022-09-03T06:03:04.639Z,1866.24
2022-09-03T06:04:05.152Z,1969.92
2022-09-03T06:05:06.943Z,2027.52
2022-09-03T06:06:07.101Z,1969.92
2022-09-03T06:07:07.512Z,1843.20
2022-09-03T06:07:16.103Z,1831.68
2022-09-03T06:08:17.825Z,1739.52
2022-09-03T06:09:17.607Z,1658.88
2022-09-03T06:10:22.353Z,1601.28
2022-09-03T06:11:19.233Z,1474.56
2022-09-03T06:12:20.171Z,1382.40
2022-09-03T06:13:19.075Z,1307.52
2022-09-03T06:14:19.620Z,1278.72
2022-09-03T06:15:21.516Z,1296.00
2022-09-03T06:16:30.841Z,1296.00
2022-09-03T06:17:22.151Z,1290.24
2022-09-03T06:18:23.895Z,1290.24
2022-09-03T06:19:23.161Z,1342.08
2022-09-03T06:20:25.257Z,1428.48
2022-09-03T06:21:24.182Z,1486.08
2022-09-03T06:22:24.146Z,1497.60
2022-09-03T06:23:24.567Z,1486.08
2022-09-03T06:24:28.054Z,1468.80
2022-09-03T06:25:25.387Z,1445.76
2022-09-03T06:26:26.664Z,1451.52
2022-09-03T06:27:26.886Z,1497.60
2022-09-03T06:28:26.739Z,1601.28
2022-09-03T06:29:26.216Z,1728.00
2022-09-03T06:30:27.854Z,1866.24
2022-09-03T06:30:40.498Z,1900.80
2022-09-03T06:31:41.354Z,2073.60
2022-09-03T06:32:41.961Z,2246.40
2022-09-03T06:33:42.855Z,2442.24
2022-09-03T06:34:44.269Z,2707.20
2022-09-03T06:35:44.749Z,2937.60
2022-09-03T06:36:45.535Z,3179.52
2022-09-03T06:37:45.936Z,3409.92
2022-09-03T06:38:46.474Z,3594.24
2022-09-03T06:39:45.868Z,3709.44
2022-09-03T06:40:46.311Z,3755.52
2022-09-03T06:41:47.691Z,3709.44
2022-09-03T06:42:48.344Z,3571.20
2022-09-03T06:43:48.795Z,3409.92
2022-09-03T06:44:48.572Z,3271.68
2022-09-03T06:45:50.306Z,3248.64
2022-09-03T06:46:49.704Z,3386.88
2022-09-03T06:47:50.860Z,3640.32
2022-09-03T06:48:51.200Z,3962.88
2022-09-03T06:49:51.708Z,4308.48
2022-09-03T06:50:51.046Z,4677.12
2022-09-03T06:51:51.744Z,4953.60
2022-09-03T06:52:52.047Z,5184.00
2022-09-03T06:53:02.682Z,5207.04
2022-09-03T06:54:03.168Z,5322.24
2022-09-03T06:55:04.139Z,5368.32
2022-09-03T06:56:07.558Z,5391.36
2022-09-03T06:57:05.145Z,5437.44
2022-09-03T06:58:06.328Z,5529.60
2022-09-03T06:59:07.857Z,5598.72
2022-09-03T07:00:06.463Z,5690.88
2022-09-03T07:01:08.136Z,5806.08
2022-09-03T07:02:07.814Z,5990.40
2022-09-03T07:03:07.827Z,6220.80
2022-09-03T07:04:09.223Z,6405.12
2022-09-03T07:05:09.612Z,6543.36
2022-09-03T07:06:09.869Z,6589.44
2022-09-03T07:07:10.271Z,6497.28
2022-09-03T07:08:10.831Z,6312.96
2022-09-03T07:09:11.300Z,6082.56
2022-09-03T07:10:11.347Z,5898.24
2022-09-03T07:11:11.003Z,5690.88
2022-09-03T07:12:11.478Z,5483.52
2022-09-03T07:13:11.989Z,5299.20
2022-09-03T07:13:20.627Z,5276.16
2022-09-03T07:14:21.892Z,5114.88
2022-09-03T07:15:22.099Z,4930.56
2022-09-03T07:16:22.342Z,4792.32
2022-09-03T07:17:21.710Z,4677.12
2022-09-03T07:18:23.063Z,4608.00
2022-09-03T07:19:23.184Z,4631.04
2022-09-03T07:20:22.928Z,4746.24
2022-09-03T07:21:23.331Z,4907.52
2022-09-03T07:22:31.281Z,5091.84
2022-09-03T07:23:24.106Z,5253.12
2022-09-03T07:24:24.526Z,5345.28
2022-09-03T07:25:25.980Z,5368.32
2022-09-03T07:26:26.413Z,5276.16
2022-09-03T07:27:26.214Z,5137.92
2022-09-03T07:28:26.526Z,4976.64
2022-09-03T07:29:26.907Z,4907.52
2022-09-03T07:30:27.664Z,4861.44
2022-09-03T07:31:28.415Z,4746.24
2022-09-03T07:32:29.040Z,4700.16
2022-09-03T07:33:33.789Z,4861.44
2022-09-03T07:34:30.230Z,5137.92
2022-09-03T07:35:32.189Z,5460.48
2022-09-03T07:36:35.478Z,5852.16
2022-09-03T07:36:40.180Z,5898.24
2022-09-03T07:37:40.650Z,6312.96
2022-09-03T07:38:42.018Z,6819.84
2022-09-03T07:39:42.269Z,6958.08
2022-09-03T07:40:41.878Z,7050.24
2022-09-03T07:41:43.631Z,7372.80
2022-09-03T07:42:43.353Z,7879.68
2022-09-03T07:43:43.919Z,8478.72
2022-09-03T07:44:44.526Z,8985.60
2022-09-03T07:45:46.215Z,9400.32
2022-09-03T07:46:46.985Z,9676.80
2022-09-03T07:47:46.321Z,9768.96
2022-09-03T07:48:46.653Z,9861.12
2022-09-03T07:49:48.736Z,10275.84
2022-09-03T07:50:47.694Z,10414.08
2022-09-03T07:51:48.851Z,10137.60
2022-09-03T07:52:48.526Z,9999.36
2022-09-03T07:53:49.547Z,9861.12
2022-09-03T07:54:48.819Z,9630.72
2022-09-03T07:55:50.694Z,9400.32
2022-09-03T07:56:50.310Z,9216.00
2022-09-03T07:57:51.988Z,8847.36
2022-09-03T07:58:01.632Z,8801.28
2022-09-03T07:59:02.564Z,8524.80
2022-09-03T08:00:03.513Z,8248.32
2022-09-03T08:01:05.444Z,8017.92
2022-09-03T08:02:04.483Z,7695.36
2022-09-03T08:03:05.542Z,7234.56
2022-09-03T08:04:09.720Z,6773.76
2022-09-03T08:05:06.109Z,6497.28
2022-09-03T08:06:06.274Z,6220.80
2022-09-03T08:07:08.275Z,5990.40
2022-09-03T08:08:07.993Z,5644.80
2022-09-03T08:09:08.683Z,5160.96
2022-09-03T08:10:09.526Z,4654.08
2022-09-03T08:11:10.216Z,4377.60
2022-09-03T08:12:11.105Z,4055.04
2022-09-03T08:13:12.888Z,3847.68
2022-09-03T08:14:12.190Z,3663.36
2022-09-03T08:15:14.046Z,3548.16
2022-09-03T08:16:13.985Z,3386.88
2022-09-03T08:17:14.781Z,3271.68
2022-09-03T08:18:16.466Z,3225.60
2022-09-03T08:19:16.129Z,3202.56
2022-09-03T08:20:16.347Z,3248.64
2022-09-03T08:21:16.355Z,3294.72
2022-09-03T08:22:16.548Z,3386.88
2022-09-03T08:22:26.286Z,3386.88
2022-09-03T08:23:26.332Z,3502.08
2022-09-03T08:24:27.209Z,3640.32
2022-09-03T08:25:28.311Z,3939.84
2022-09-03T08:26:28.225Z,4032.00
2022-09-03T08:27:28.660Z,4216.32
2022-09-03T08:28:29.672Z,4446.72
2022-09-03T08:29:30.192Z,4700.16
2022-09-03T08:30:30.185Z,4907.52
2022-09-03T08:31:29.941Z,5068.80
2022-09-03T08:32:30.357Z,5022.72
2022-09-03T08:33:30.370Z,5022.72
2022-09-03T08:34:31.991Z,5045.76
2022-09-03T08:35:31.323Z,5114.88
2022-09-03T08:36:31.837Z,5391.36
2022-09-03T08:37:32.408Z,5990.40
2022-09-03T08:38:33.775Z,6497.28
2022-09-03T08:39:34.226Z,6958.08
2022-09-03T08:40:33.861Z,7603.20
2022-09-03T08:41:35.259Z,8156.16
2022-09-03T08:42:35.977Z,8524.80
2022-09-03T08:43:36.314Z,8893.44
2022-09-03T08:43:44.972Z,8893.44
2022-09-03T08:44:45.613Z,8893.44
2022-09-03T08:45:46.171Z,8478.72
2022-09-03T08:46:47.668Z,7925.76
2022-09-03T08:47:47.408Z,7188.48
2022-09-03T08:48:48.805Z,6773.76
2022-09-03T08:49:49.254Z,7142.40
2022-09-03T08:50:49.694Z,8432.64
2022-09-03T08:51:49.990Z,10644.48
2022-09-03T08:52:50.571Z,10967.04
2022-09-03T08:53:51.143Z,11796.48
2022-09-03T08:54:51.266Z,12441.60
2022-09-03T08:55:50.936Z,13547.52
2022-09-03T08:56:52.516Z,14929.92
2022-09-03T08:57:52.934Z,16496.64
2022-09-03T08:58:53.664Z,16496.64
2022-09-03T08:59:53.722Z,16404.48
2022-09-03T09:00:54.529Z,20920.32
2022-09-03T09:01:54.867Z,21104.64
2022-09-03T09:02:54.687Z,20090.88
2022-09-03T09:03:54.604Z,24883.20
2022-09-03T09:04:04.272Z,26173.44
2022-09-03T09:05:05.949Z,32071.68
2022-09-03T09:06:04.908Z,36126.72
2022-09-03T09:07:06.152Z,30965.76
2022-09-03T09:08:05.239Z,25989.12
2022-09-03T09:09:05.742Z,19630.08
2022-09-03T09:10:07.638Z,19537.92
2022-09-03T09:11:08.079Z,19077.12
2022-09-03T09:12:07.553Z,17602.56
2022-09-03T09:13:09.154Z,16496.64
2022-09-03T09:14:08.803Z,15759.36
2022-09-03T09:15:09.472Z,15022.08
2022-09-03T09:16:10.378Z,14745.60
2022-09-03T09:17:11.101Z,15851.52
2022-09-03T09:18:11.601Z,14100.48
2022-09-03T09:19:12.037Z,14376.96
2022-09-03T09:20:13.498Z,12349.44
2022-09-03T09:21:17.705Z,11980.80
2022-09-03T09:22:13.348Z,11381.76
2022-09-03T09:23:14.953Z,11750.40
2022-09-03T09:24:15.387Z,12810.24
2022-09-03T09:25:16.165Z,15206.40
2022-09-03T09:26:16.961Z,14284.80
2022-09-03T09:26:25.583Z,14469.12
2022-09-03T09:27:26.150Z,12994.56
2022-09-03T09:28:27.345Z,12349.44
2022-09-03T09:29:27.806Z,12072.96
2022-09-03T09:30:27.137Z,12441.60
2022-09-03T09:31:27.544Z,13731.84
2022-09-03T09:32:27.498Z,13547.52
2022-09-03T09:33:29.312Z,13824.00
2022-09-03T09:34:29.189Z,13639.68
2022-09-03T09:35:31.857Z,12810.24
2022-09-03T09:36:31.851Z,11381.76
2022-09-03T09:37:32.436Z,10368.00
2022-09-03T09:38:31.656Z,10137.60
2022-09-03T09:39:32.488Z,10460.16
2022-09-03T09:40:33.305Z,11473.92
2022-09-03T09:41:34.557Z,12072.96
2022-09-03T09:42:34.803Z,12349.44
2022-09-03T09:43:35.711Z,12165.12
2022-09-03T09:44:36.552Z,11888.64
2022-09-03T09:45:37.400Z,11796.48
2022-09-03T09:46:38.383Z,12625.92
2022-09-03T09:47:38.100Z,14008.32
2022-09-03T09:47:46.764Z,14100.48
2022-09-03T09:48:48.697Z,14284.80
2022-09-03T09:49:47.870Z,13455.36
2022-09-03T09:50:49.451Z,12349.44
2022-09-03T09:51:50.212Z,11427.84
2022-09-03T09:52:50.842Z,11059.20
2022-09-03T09:53:50.574Z,10782.72
2022-09-03T09:54:50.993Z,10091.52
2022-09-03T09:55:52.141Z,9262.08
2022-09-03T09:56:52.784Z,8340.48
2022-09-03T09:57:53.298Z,7326.72
2022-09-03T09:58:53.622Z,6220.80
2022-09-03T09:59:54.390Z,5414.40
2022-09-03T10:00:54.619Z,4907.52
2022-09-03T10:01:55.591Z,4769.28
2022-09-03T10:02:55.176Z,4907.52
2022-09-03T10:03:55.818Z,5299.20
2022-09-03T10:04:57.122Z,5829.12
2022-09-03T10:05:57.591Z,6220.80
2022-09-03T10:06:57.906Z,6497.28
2022-09-03T10:07:07.043Z,6497.28
2022-09-03T10:08:07.988Z,6359.04
2022-09-03T10:09:09.931Z,6220.80
2022-09-03T10:10:10.527Z,6174.72
2022-09-03T10:11:10.287Z,6220.80
2022-09-03T10:12:11.679Z,6220.80
2022-09-03T10:13:12.350Z,6174.72
2022-09-03T10:14:13.009Z,6082.56
2022-09-03T10:15:13.027Z,5875.20
2022-09-03T10:16:13.245Z,5644.80
2022-09-03T10:17:13.719Z,5575.68
2022-09-03T10:18:13.664Z,5322.24
2022-09-03T10:19:14.047Z,5345.28
2022-09-03T10:20:14.410Z,5713.92
2022-09-03T10:21:15.651Z,6359.04
2022-09-03T10:22:14.638Z,7326.72
2022-09-03T10:23:16.555Z,8340.48
2022-09-03T10:24:16.559Z,8939.52
2022-09-03T10:25:18.854Z,9768.96
2022-09-03T10:26:18.095Z,10828.80
2022-09-03T10:27:18.981Z,11289.60
2022-09-03T10:28:19.477Z,11612.16
2022-09-03T10:29:20.321Z,11980.80
2022-09-03T10:30:21.288Z,11704.32
2022-09-03T10:31:22.478Z,11381.76
2022-09-03T10:32:21.348Z,11888.64
2022-09-03T10:33:21.936Z,12625.92
2022-09-03T10:33:40.960Z,12902.40
2022-09-03T10:34:42.332Z,13547.52
2022-09-03T10:35:41.580Z,14745.60
2022-09-03T10:36:42.057Z,17049.60
2022-09-03T10:37:43.727Z,20459.52
2022-09-03T10:38:43.330Z,24514.56
2022-09-03T10:39:48.892Z,28753.92
2022-09-03T10:40:44.409Z,25436.16
2022-09-03T10:41:45.232Z,22394.88
2022-09-03T10:42:46.996Z,21288.96
2022-09-03T10:43:46.298Z,22763.52
2022-09-03T10:44:47.599Z,25067.52
2022-09-03T10:45:47.151Z,28016.64
2022-09-03T10:46:48.631Z,28753.92
2022-09-03T10:47:48.331Z,26357.76
2022-09-03T10:48:49.715Z,28016.64
2022-09-03T10:49:52.246Z,33546.24
2022-09-03T10:50:49.632Z,47001.60
2022-09-03T10:51:49.801Z,32624.64
2022-09-03T10:52:50.128Z,32071.68
2022-09-03T10:53:53.612Z,26542.08
2022-09-03T10:54:51.179Z,22947.84
2022-09-03T10:55:51.888Z,21104.64
2022-09-03T10:56:52.582Z,19722.24
2022-09-03T10:57:52.824Z,18984.96
2022-09-03T10:58:01.919Z,18892.80
2022-09-03T10:59:02.626Z,18708.48
2022-09-03T11:00:03.273Z,18892.80
2022-09-03T11:01:05.312Z,19353.60
2022-09-03T11:02:04.510Z,20367.36
2022-09-03T11:03:04.775Z,22487.04
2022-09-03T11:04:05.209Z,44421.12
2022-09-03T11:05:05.342Z,38891.52
2022-09-03T11:06:05.314Z,43315.20
2022-09-03T11:07:06.688Z,40181.76
2022-09-03T11:08:05.951Z,46264.32
2022-09-03T11:09:06.833Z,42946.56
2022-09-03T11:10:07.074Z,45527.04
2022-09-03T11:11:08.169Z,42946.56
2022-09-03T11:12:09.077Z,45158.40
2022-09-03T11:13:08.471Z,30781.44
2022-09-03T11:14:09.455Z,27279.36
2022-09-03T11:15:10.546Z,28938.24
2022-09-03T11:16:11.175Z,30965.76
2022-09-03T11:17:10.846Z,30228.48
2022-09-03T11:18:10.856Z,51978.24
2022-09-03T11:19:12.822Z,45895.68
2022-09-03T11:20:12.122Z,56033.28
2022-09-03T11:21:14.041Z,53452.80
2022-09-03T11:21:23.284Z,54927.36
2022-09-03T11:22:23.344Z,54558.72
2022-09-03T11:23:23.918Z,52715.52
2022-09-03T11:24:24.443Z,54927.36
2022-09-03T11:25:26.053Z,55296.00
2022-09-03T11:26:25.954Z,56033.28
2022-09-03T11:27:26.289Z,55664.64
2022-09-03T11:28:27.508Z,54927.36
2022-09-03T11:29:27.032Z,54558.72
2022-09-03T11:30:27.510Z,53821.44
2022-09-03T11:31:28.757Z,53452.80
2022-09-03T11:32:28.099Z,53084.16
2022-09-03T11:33:28.834Z,53084.16
2022-09-03T11:34:31.999Z,53084.16
2022-09-03T11:35:29.445Z,52346.88
2022-09-03T11:36:30.580Z,53084.16
2022-09-03T11:37:30.304Z,53084.16
2022-09-03T11:38:31.730Z,53084.16
2022-09-03T11:39:31.648Z,52715.52
2022-09-03T11:40:31.892Z,52715.52
2022-09-03T11:41:32.090Z,51978.24
2022-09-03T11:42:33.203Z,51240.96
2022-09-03T11:43:32.777Z,51609.60
2022-09-03T11:44:34.293Z,51978.24
2022-09-03T11:45:34.551Z,51978.24
2022-09-03T11:46:34.154Z,51978.24
2022-09-03T11:46:42.685Z,51978.24
2022-09-03T11:47:44.224Z,51609.60
2022-09-03T11:48:44.443Z,52346.88
2022-09-03T11:49:44.269Z,52346.88
2022-09-03T11:50:45.539Z,52346.88
2022-09-03T11:51:45.223Z,52346.88
2022-09-03T11:52:46.588Z,51978.24
2022-09-03T11:53:47.019Z,51978.24
2022-09-03T11:54:47.349Z,52346.88
2022-09-03T11:55:47.883Z,51978.24
2022-09-03T11:56:48.706Z,51240.96
2022-09-03T11:57:48.158Z,52346.88
2022-09-03T11:58:48.396Z,52715.52
2022-09-03T11:59:48.979Z,52346.88
2022-09-03T12:00:49.112Z,52346.88
2022-09-03T12:01:49.413Z,52715.52
2022-09-03T12:02:49.850Z,51609.60
2022-09-03T12:03:49.159Z,54190.08
2022-09-03T12:04:50.566Z,54558.72
2022-09-03T12:05:50.091Z,23224.32
2022-09-03T12:06:50.219Z,17233.92